Terminal Aerodrome Forecast
Issued by NWS Charleston, WV

Current Version | Previous Version | Text Only | Print | Product List | Glossary Off
Versions: 1 2 3 4 5 6 7 8 9 10 11 12 13 14 15 16 17 18 19 20 21 22 23 24 25 26 27

000
FTUS41 KRLX 040901 AAA
TAFBKW
TAF AMD
KBKW 040901Z 0409/0506 25004KT 6SM SHRA BR OVC010
     FM041000 26004KT 6SM SHRA BR OVC004
     FM041400 28004KT 6SM SHRA BR OVC008
     FM041700 29005KT P6SM VCTS BKN020CB
     FM041900 30006KT P6SM BKN025
     FM050500 00000KT P6SM SCT030=

USA.gov is the U.S. government's official web portal to all federal, state and local government web resources and services.